createdAt,value
2022-12-08T00:02:19.679Z,0
2022-12-08T00:07:45.512Z,0
2022-12-08T00:13:32.184Z,0
2022-12-08T00:18:57.966Z,0
2022-12-08T00:24:23.581Z,0
2022-12-08T00:29:48.815Z,0
2022-12-08T00:35:14.000Z,0
2022-12-08T00:40:44.468Z,0
2022-12-08T00:46:09.881Z,0
2022-12-08T00:51:42.591Z,0
2022-12-08T00:57:08.059Z,0
2022-12-08T01:02:33.375Z,0
2022-12-08T01:08:01.589Z,0
2022-12-08T01:13:27.093Z,0
2022-12-08T01:18:52.300Z,0
2022-12-08T01:24:17.741Z,0
2022-12-08T01:29:47.137Z,0
2022-12-08T01:35:12.546Z,0
2022-12-08T01:40:41.277Z,0
2022-12-08T01:46:06.538Z,0
2022-12-08T01:51:31.839Z,0
2022-12-08T01:57:04.867Z,0
2022-12-08T02:02:30.565Z,0
2022-12-08T02:07:56.328Z,0
2022-12-08T02:13:21.599Z,0
2022-12-08T02:24:17.322Z,0
2022-12-08T02:29:42.724Z,0
2022-12-08T02:35:07.987Z,0
2022-12-08T02:40:33.209Z,0
2022-12-08T02:45:58.483Z,0
2022-12-08T02:51:26.687Z,0
2022-12-08T02:56:52.436Z,0
2022-12-08T03:02:18.078Z,0
2022-12-08T03:07:43.451Z,0
2022-12-08T03:13:08.825Z,0
2022-12-08T03:18:34.193Z,0
2022-12-08T03:23:59.381Z,0
2022-12-08T03:29:41.749Z,0
2022-12-08T03:35:07.394Z,0
2022-12-08T03:40:35.522Z,0
2022-12-08T03:46:04.229Z,0
2022-12-08T03:51:29.482Z,0
2022-12-08T03:56:54.654Z,0
2022-12-08T04:02:33.775Z,0
2022-12-08T04:07:59.356Z,0
2022-12-08T04:13:24.713Z,0
2022-12-08T04:18:49.867Z,0
2022-12-08T04:24:15.132Z,0
2022-12-08T04:29:40.464Z,0
2022-12-08T04:35:05.711Z,0
2022-12-08T04:40:48.028Z,0
2022-12-08T04:46:13.937Z,0
2022-12-08T04:51:39.251Z,0
2022-12-08T04:57:06.751Z,0
2022-12-08T05:02:32.479Z,0
2022-12-08T05:07:57.856Z,0
2022-12-08T05:13:23.459Z,0
2022-12-08T05:23:59.762Z,0
2022-12-08T05:29:25.271Z,0
2022-12-08T05:34:50.481Z,0
2022-12-08T05:40:15.932Z,0
2022-12-08T05:45:44.698Z,0
2022-12-08T05:51:10.684Z,0
2022-12-08T05:56:36.021Z,0
2022-12-08T06:07:31.792Z,0
2022-12-08T06:12:57.180Z,0
2022-12-08T06:18:22.436Z,0
2022-12-08T06:23:47.664Z,0
2022-12-08T06:29:12.813Z,0
2022-12-08T06:34:37.930Z,0
2022-12-08T06:40:03.690Z,0
2022-12-08T06:46:11.103Z,0
2022-12-08T06:51:37.110Z,0
2022-12-08T06:57:02.176Z,0
2022-12-08T07:02:27.620Z,0.5
2022-12-08T07:07:53.049Z,22.9
2022-12-08T07:13:20.611Z,59.6
2022-12-08T07:18:45.767Z,60
2022-12-08T07:24:10.898Z,97.5
2022-12-08T07:29:36.208Z,161.3
2022-12-08T07:35:01.152Z,201.7
2022-12-08T07:40:25.982Z,225.8
2022-12-08T07:45:57.495Z,272.1
2022-12-08T07:51:22.693Z,345
2022-12-08T07:56:47.485Z,335.8
2022-12-08T08:02:24.605Z,456.7
2022-12-08T08:07:50.882Z,706.2
2022-12-08T08:13:16.076Z,1029.2
2022-12-08T08:18:41.692Z,1367.5
2022-12-08T08:23:59.892Z,2149.6
2022-12-08T08:29:16.958Z,800.8
2022-12-08T08:34:33.714Z,711.2
2022-12-08T08:40:01.214Z,775.8
2022-12-08T08:45:18.097Z,737.5
2022-12-08T08:50:37.648Z,829.6
2022-12-08T08:55:54.847Z,1525
2022-12-08T09:01:11.850Z,2130.8
2022-12-08T09:06:29.020Z,2765
2022-12-08T09:11:46.350Z,3004.2
2022-12-08T09:17:03.594Z,3607.9
2022-12-08T09:22:20.584Z,4335
2022-12-08T09:27:37.555Z,5040.4
2022-12-08T09:33:00.266Z,4664.2
2022-12-08T09:38:17.581Z,4378.8
2022-12-08T09:43:34.538Z,3787.1
2022-12-08T09:48:51.526Z,3794.2
2022-12-08T09:59:28.681Z,4770.8
2022-12-08T10:04:45.782Z,3696.3
2022-12-08T10:10:03.429Z,5905
2022-12-08T10:15:24.104Z,7139.2
2022-12-08T10:20:41.390Z,6007.9
2022-12-08T10:31:18.573Z,6562.1
2022-12-08T10:36:56.969Z,7856.3
2022-12-08T10:42:14.324Z,8118.8
2022-12-08T10:47:31.324Z,8414.2
2022-12-08T10:52:48.220Z,7622.1
2022-12-08T10:58:04.916Z,7077.9
2022-12-08T11:03:24.240Z,7154.2
2022-12-08T11:08:41.068Z,6659.2
2022-12-08T11:14:00.203Z,6517.9
2022-12-08T11:19:17.052Z,7202.5
2022-12-08T11:24:41.983Z,7057.1
2022-12-08T11:29:58.806Z,6291.3
2022-12-08T11:35:15.279Z,6109.2
2022-12-08T11:40:32.052Z,5738.3
2022-12-08T11:45:48.885Z,5950
2022-12-08T11:51:09.202Z,5807.9
2022-12-08T12:01:45.920Z,4723.3
2022-12-08T12:07:02.856Z,4989.6
2022-12-08T12:12:19.681Z,5263.7
2022-12-08T12:17:36.658Z,4837.1
2022-12-08T12:22:53.726Z,4752.5
2022-12-08T12:28:10.810Z,4892.1
2022-12-08T12:33:36.737Z,6052.1
2022-12-08T12:39:01.444Z,5140.4
2022-12-08T12:44:18.503Z,4715.8
2022-12-08T12:49:43.034Z,6152.1
2022-12-08T12:55:00.315Z,6208.8
2022-12-08T13:00:17.380Z,6571.7
2022-12-08T13:05:34.519Z,7169.2
2022-12-08T13:10:51.500Z,6841.7
2022-12-08T13:16:17.325Z,6368.8
2022-12-08T13:21:35.896Z,5722.5
2022-12-08T13:26:53.079Z,5581.7
2022-12-08T13:32:10.422Z,5334.6
2022-12-08T13:37:54.721Z,4731.3
2022-12-08T13:43:12.369Z,4301.3
2022-12-08T13:49:09.866Z,3972.9
2022-12-08T14:00:40.900Z,2583.3
2022-12-08T14:06:13.645Z,2162.9
2022-12-08T14:11:31.024Z,2091.3
2022-12-08T14:16:47.727Z,2309.6
2022-12-08T14:22:04.486Z,2151.2
2022-12-08T14:27:23.910Z,2017.5
2022-12-08T14:32:40.790Z,1965
2022-12-08T14:38:05.331Z,1679.2
2022-12-08T14:43:22.240Z,1437.1
2022-12-08T14:54:01.989Z,1132.9
2022-12-08T14:59:18.872Z,988.3
2022-12-08T15:04:38.693Z,840
2022-12-08T15:09:55.582Z,705.8
2022-12-08T15:15:12.433Z,582.5
2022-12-08T15:20:34.708Z,458.8
2022-12-08T15:25:52.235Z,340
2022-12-08T15:31:09.342Z,235.4
2022-12-08T15:36:26.397Z,145.8
2022-12-08T15:41:43.223Z,83.3
2022-12-08T15:52:30.945Z,18.3
2022-12-08T15:58:44.955Z,0
2022-12-08T16:04:37.154Z,0
2022-12-08T16:10:20.333Z,0
2022-12-08T16:22:04.628Z,0
2022-12-08T16:27:59.886Z,0
2022-12-08T16:33:18.909Z,0
2022-12-08T16:38:35.984Z,0
2022-12-08T16:43:53.744Z,0
2022-12-08T16:49:12.390Z,0
2022-12-08T16:54:29.634Z,0
2022-12-08T16:59:46.977Z,0
2022-12-08T17:05:04.355Z,0
2022-12-08T17:10:21.757Z,0
2022-12-08T17:15:38.927Z,0
2022-12-08T17:20:59.316Z,0
2022-12-08T17:26:16.652Z,0
2022-12-08T17:31:34.829Z,0
2022-12-08T17:36:52.387Z,0
2022-12-08T17:42:12.602Z,0
2022-12-08T17:47:30.052Z,0
2022-12-08T17:52:47.514Z,0
2022-12-08T17:58:13.826Z,0
2022-12-08T18:03:31.501Z,0
2022-12-08T18:08:49.100Z,0
2022-12-08T18:14:07.147Z,0
2022-12-08T18:19:24.332Z,0
2022-12-08T18:24:42.105Z,0
2022-12-08T18:30:02.989Z,0
2022-12-08T18:35:20.653Z,0
2022-12-08T18:40:38.324Z,0
2022-12-08T18:45:55.757Z,0
2022-12-08T18:56:23.227Z,0
2022-12-08T19:01:42.051Z,0
2022-12-08T19:06:59.322Z,0
2022-12-08T19:12:16.857Z,0
2022-12-08T19:22:57.803Z,0
2022-12-08T19:33:39.013Z,0
2022-12-08T19:38:57.814Z,0
2022-12-08T19:55:09.154Z,0
2022-12-08T20:00:29.975Z,0
2022-12-08T20:05:47.393Z,0
2022-12-08T20:11:04.999Z,0
2022-12-08T20:21:29.532Z,0
2022-12-08T20:26:47.274Z,0
2022-12-08T20:42:12.890Z,0
2022-12-08T20:47:30.280Z,0
2022-12-08T20:52:47.895Z,0
2022-12-08T20:58:05.242Z,0
2022-12-08T21:03:22.999Z,0
2022-12-08T21:08:40.867Z,0
2022-12-08T21:14:06.587Z,0
2022-12-08T21:19:24.674Z,0
2022-12-08T21:24:54.800Z,0
2022-12-08T21:30:12.553Z,0
2022-12-08T21:35:30.034Z,0
2022-12-08T21:40:47.258Z,0
2022-12-08T21:46:04.659Z,0
2022-12-08T21:51:21.917Z,0
2022-12-08T21:56:39.418Z,0
2022-12-08T22:01:56.912Z,0
2022-12-08T22:07:15.369Z,0
2022-12-08T22:12:33.347Z,0
2022-12-08T22:17:54.262Z,0
2022-12-08T22:23:11.813Z,0
2022-12-08T22:28:29.153Z,0
2022-12-08T22:33:46.962Z,0
2022-12-08T22:39:41.571Z,0
2022-12-08T22:44:59.442Z,0
2022-12-08T22:50:19.266Z,0
2022-12-08T22:55:39.261Z,0
2022-12-08T23:00:56.810Z,0
2022-12-08T23:06:19.437Z,0
2022-12-08T23:11:36.819Z,0
2022-12-08T23:16:54.243Z,0
2022-12-08T23:22:15.003Z,0
2022-12-08T23:27:41.473Z,0
2022-12-08T23:32:59.333Z,0
2022-12-08T23:38:17.227Z,0
2022-12-08T23:43:34.581Z,0
2022-12-08T23:48:52.200Z,0
2022-12-08T23:54:09.786Z,0
2022-12-08T23:59:28.359Z,0
